Time;durP1;ratioP1;P1;durP2;ratioP2;P2;SDS_P1;SDS_P2;PMS_P1;PMS_P2;Temp;Humidity;BMP_temperature;BMP_pressure;BME280_temperature;BME280_humidity;BME280_pressure;Samples;Min_cycle;Max_cycle;Signal;HPM_P1;HPM_P2
2021/03/21 00:01:17;;;;;;;9.27;6.30;;;3.10;50.70;;;;;;5052692;28;20104;-73
2021/03/21 00:03:43;;;;;;;12.32;7.05;;;3.10;50.70;;;;;;5051289;28;20056;-72
2021/03/21 00:06:09;;;;;;;12.48;7.65;;;3.10;50.70;;;;;;5053063;28;20109;-72
2021/03/21 00:08:35;;;;;;;10.70;6.55;;;3.10;50.70;;;;;;5066356;28;20035;-73
2021/03/21 00:11:07;;;;;;;9.30;6.00;;;3.10;50.80;;;;;;5071269;28;20107;-72
2021/03/21 00:13:33;;;;;;;11.32;6.60;;;3.00;50.70;;;;;;5065666;28;20451;-73
2021/03/21 00:16:01;;;;;;;11.40;7.57;;;3.00;50.80;;;;;;5071243;28;20386;-73
2021/03/21 00:18:30;;;;;;;12.68;7.25;;;3.00;51.00;;;;;;5064588;28;20027;-74
2021/03/21 00:20:56;;;;;;;11.50;6.82;;;2.90;51.10;;;;;;5053218;28;20032;-71
2021/03/21 00:23:22;;;;;;;10.32;6.43;;;2.90;51.20;;;;;;5063834;28;20032;-74
2021/03/21 00:25:48;;;;;;;11.35;6.35;;;2.80;51.20;;;;;;5070984;28;20021;-73
2021/03/21 00:28:17;;;;;;;8.90;5.32;;;2.80;51.30;;;;;;5056996;28;20071;-71
2021/03/21 00:30:45;;;;;;;11.57;6.75;;;2.80;51.40;;;;;;5057506;28;20071;-72
2021/03/21 00:33:13;;;;;;;16.60;7.70;;;2.70;51.40;;;;;;5056645;28;20028;-73
2021/03/21 00:35:39;;;;;;;15.68;7.78;;;2.70;51.80;;;;;;5052382;28;20082;-73
2021/03/21 00:38:08;;;;;;;10.45;6.95;;;2.70;52.00;;;;;;5057973;28;20416;-72
2021/03/21 00:40:35;;;;;;;11.18;6.60;;;2.70;52.30;;;;;;5052051;28;20431;-72
2021/03/21 00:43:01;;;;;;;11.95;7.10;;;2.60;52.10;;;;;;5052100;28;20017;-73
2021/03/21 00:45:28;;;;;;;12.45;6.88;;;2.60;52.20;;;;;;5050638;28;20024;-73
2021/03/21 00:47:54;;;;;;;9.45;6.38;;;2.60;52.30;;;;;;5052039;28;20021;-72
2021/03/21 00:50:27;;;;;;;13.75;8.70;;;2.50;52.20;;;;;;5051637;28;20064;-71
2021/03/21 00:52:53;;;;;;;10.10;6.60;;;2.60;52.30;;;;;;5050612;28;20036;-73
2021/03/21 00:55:19;;;;;;;10.25;6.10;;;2.50;52.10;;;;;;5055486;28;20025;-74
2021/03/21 00:57:45;;;;;;;8.70;5.97;;;2.50;52.10;;;;;;5071899;28;20124;-74
2021/03/21 01:00:23;;;;;;;9.73;5.93;;;2.40;52.40;;;;;;5061311;28;20025;-71
2021/03/21 01:02:49;;;;;;;8.57;5.60;;;2.40;52.40;;;;;;5065885;28;20043;-73
2021/03/21 01:05:19;;;;;;;7.40;4.90;;;2.40;52.40;;;;;;5070497;28;20424;-72
2021/03/21 01:07:47;;;;;;;10.75;6.03;;;2.40;52.30;;;;;;5070421;28;20017;-71
2021/03/21 01:10:13;;;;;;;10.50;6.28;;;2.40;52.40;;;;;;5088254;28;20409;-72
2021/03/21 01:12:38;;;;;;;8.65;5.60;;;2.30;52.30;;;;;;5081581;28;20028;-71
2021/03/21 01:15:05;;;;;;;11.45;6.57;;;2.30;52.30;;;;;;5088326;28;20028;-71
2021/03/21 01:17:31;;;;;;;8.15;5.43;;;2.30;52.30;;;;;;5089235;28;20021;-72
2021/03/21 01:19:56;;;;;;;9.85;5.35;;;2.30;52.20;;;;;;5084191;28;20460;-71
2021/03/21 01:22:22;;;;;;;9.52;6.30;;;2.30;52.20;;;;;;5083618;28;20025;-72
2021/03/21 01:24:48;;;;;;;10.30;6.38;;;2.30;52.30;;;;;;5069288;28;20037;-72
2021/03/21 01:27:14;;;;;;;10.95;6.03;;;2.30;52.40;;;;;;5070253;28;20044;-71
2021/03/21 01:29:40;;;;;;;9.48;6.03;;;2.20;52.50;;;;;;5070798;28;20029;-71
2021/03/21 01:32:08;;;;;;;9.98;5.85;;;2.20;52.50;;;;;;5070408;28;20025;-72
2021/03/21 01:34:35;;;;;;;8.23;5.28;;;2.20;52.50;;;;;;5070063;28;20515;-73
2021/03/21 01:37:01;;;;;;;9.55;5.80;;;2.20;52.40;;;;;;5071783;28;20055;-72
2021/03/21 01:39:27;;;;;;;12.35;7.13;;;2.20;52.50;;;;;;5069487;28;20021;-71
2021/03/21 01:42:03;;;;;;;8.98;6.25;;;2.10;53.20;;;;;;5078269;28;20036;-72
2021/03/21 01:44:29;;;;;;;11.25;6.53;;;2.10;53.00;;;;;;5082779;28;20040;-72
2021/03/21 01:46:54;;;;;;;11.50;6.20;;;2.10;53.00;;;;;;5058145;28;20096;-72
2021/03/21 01:49:34;;;;;;;14.30;7.50;;;2.10;53.10;;;;;;5068759;28;20048;-71
2021/03/21 01:52:02;;;;;;;11.88;6.82;;;2.10;53.30;;;;;;5076550;28;20028;-73
2021/03/21 01:54:28;;;;;;;9.20;4.90;;;2.10;53.20;;;;;;5074319;28;20029;-74
2021/03/21 01:56:56;;;;;;;12.57;5.93;;;2.10;53.20;;;;;;5074794;28;20078;-73
2021/03/21 01:59:29;;;;;;;20.80;10.38;;;2.10;53.30;;;;;;5075253;28;20056;-73
2021/03/21 02:01:58;;;;;;;21.33;8.95;;;2.10;53.40;;;;;;5074288;28;20070;-72
2021/03/21 02:04:25;;;;;;;13.55;7.70;;;2.10;53.40;;;;;;5075154;28;20025;-71
2021/03/21 02:07:32;;;;;;;12.80;7.10;;;2.10;53.50;;;;;;5067822;28;20036;-73
2021/03/21 02:10:24;;;;;;;8.75;5.43;;;2.20;53.90;;;;;;5054811;28;20032;-73
2021/03/21 02:13:22;;;;;;;9.10;5.78;;;2.20;53.90;;;;;;5054403;28;20048;-72
2021/03/21 02:16:11;;;;;;;11.25;6.63;;;2.30;54.10;;;;;;5054798;28;20115;-73
2021/03/21 02:19:01;;;;;;;11.60;6.72;;;2.40;54.20;;;;;;5053203;28;20028;-72
2021/03/21 02:21:39;;;;;;;10.18;6.93;;;2.50;54.50;;;;;;5071894;28;20039;-73
2021/03/21 02:24:42;;;;;;;12.75;7.30;;;2.60;54.60;;;;;;5072300;28;20051;-73
2021/03/21 02:27:26;;;;;;;9.82;6.53;;;2.70;54.70;;;;;;5054620;28;20417;-73
2021/03/21 02:30:00;;;;;;;12.38;7.03;;;2.90;54.50;;;;;;5053206;28;20387;-72
2021/03/21 02:32:32;;;;;;;12.95;8.25;;;3.00;54.40;;;;;;5062721;28;20500;-74
2021/03/21 02:35:04;;;;;;;9.80;6.68;;;3.00;54.60;;;;;;5055840;28;20044;-73
2021/03/21 02:37:37;;;;;;;10.52;6.55;;;3.10;54.40;;;;;;5054353;28;20092;-72
2021/03/21 02:40:06;;;;;;;11.53;7.77;;;3.20;54.30;;;;;;5054212;28;20031;-72
2021/03/21 02:42:38;;;;;;;11.20;7.50;;;3.30;54.10;;;;;;5053036;28;20048;-72
2021/03/21 02:45:10;;;;;;;10.23;6.95;;;3.30;53.90;;;;;;5054230;28;20057;-72
2021/03/21 02:47:37;;;;;;;11.48;6.18;;;3.40;53.90;;;;;;5052859;28;20048;-74
2021/03/21 02:50:17;;;;;;;9.68;6.40;;;3.40;53.80;;;;;;5053739;28;20045;-72
2021/03/21 02:52:59;;;;;;;11.68;6.78;;;3.50;53.80;;;;;;5054041;28;20044;-74
2021/03/21 02:55:38;;;;;;;13.93;7.95;;;3.50;53.90;;;;;;5053769;28;20021;-72
2021/03/21 02:58:14;;;;;;;13.50;7.70;;;3.60;54.00;;;;;;5053944;28;20059;-74
2021/03/21 03:00:50;;;;;;;11.38;6.70;;;3.60;53.80;;;;;;5052514;28;20028;-73
2021/03/21 03:03:18;;;;;;;10.10;6.05;;;3.70;53.80;;;;;;5053847;28;20032;-73
2021/03/21 03:05:49;;;;;;;14.75;7.22;;;3.70;53.80;;;;;;5052395;28;20104;-74
2021/03/21 03:08:20;;;;;;;14.32;6.95;;;3.80;53.80;;;;;;5052426;28;20029;-73
2021/03/21 03:10:54;;;;;;;9.95;7.03;;;3.80;53.70;;;;;;5056752;28;20363;-74
2021/03/21 03:13:22;;;;;;;10.95;7.68;;;3.80;53.60;;;;;;5064632;28;20028;-74
2021/03/21 03:15:54;;;;;;;10.15;6.65;;;3.80;53.50;;;;;;5053502;28;20044;-74
2021/03/21 03:18:38;;;;;;;12.60;7.97;;;3.90;53.50;;;;;;5058127;28;20501;-71
2021/03/21 03:21:34;;;;;;;11.75;7.90;;;3.90;53.60;;;;;;5069093;28;20036;-72
2021/03/21 03:24:18;;;;;;;14.82;8.43;;;3.90;53.60;;;;;;5065251;28;20029;-72
2021/03/21 03:26:53;;;;;;;19.73;9.25;;;3.90;53.60;;;;;;5058309;28;20409;-72
2021/03/21 03:29:33;;;;;;;14.52;8.27;;;3.90;53.60;;;;;;5071889;28;20378;-73
2021/03/21 03:32:04;;;;;;;12.23;8.00;;;3.90;53.70;;;;;;5056587;28;20021;-74
2021/03/21 03:34:31;;;;;;;15.65;8.65;;;4.00;53.60;;;;;;5053507;28;20028;-75
2021/03/21 03:36:59;;;;;;;16.50;9.70;;;4.00;53.60;;;;;;5051979;28;20466;-74
2021/03/21 03:39:26;;;;;;;13.40;9.13;;;4.00;53.60;;;;;;5067812;28;20040;-74
2021/03/21 03:42:03;;;;;;;13.20;9.27;;;4.00;53.50;;;;;;5059321;28;20478;-72
2021/03/21 03:45:01;;;;;;;15.00;10.38;;;4.10;53.50;;;;;;5053455;28;20549;-72
2021/03/21 03:48:00;;;;;;;14.25;9.07;;;4.10;53.50;;;;;;5058097;28;20051;-72
2021/03/21 03:50:46;;;;;;;13.98;9.02;;;4.00;53.30;;;;;;5051673;28;20045;-73
2021/03/21 03:53:38;;;;;;;14.43;8.07;;;4.10;53.30;;;;;;5052805;28;20033;-74
2021/03/21 03:56:13;;;;;;;14.82;8.98;;;4.10;53.20;;;;;;5052779;28;20425;-73
2021/03/21 03:59:10;;;;;;;12.52;8.60;;;4.10;53.20;;;;;;5052799;28;20032;-74
2021/03/21 04:01:48;;;;;;;16.27;9.50;;;4.10;53.20;;;;;;5052819;28;20035;-72
2021/03/21 04:04:35;;;;;;;13.60;8.82;;;4.10;53.10;;;;;;5052882;28;20032;-72
2021/03/21 04:07:35;;;;;;;14.13;9.00;;;4.10;53.00;;;;;;5072782;28;20035;-72
2021/03/21 04:10:27;;;;;;;15.48;9.10;;;4.10;53.00;;;;;;5072662;28;20444;-73
2021/03/21 04:12:56;;;;;;;15.45;8.45;;;4.10;52.90;;;;;;5052479;28;20032;-73
2021/03/21 04:15:30;;;;;;;11.50;6.97;;;4.10;52.80;;;;;;5052699;28;20037;-73
2021/03/21 04:18:02;;;;;;;11.80;6.97;;;4.10;52.80;;;;;;5052489;28;20029;-74
2021/03/21 04:20:35;;;;;;;17.10;7.97;;;4.10;52.70;;;;;;5052407;28;20152;-74
2021/03/21 04:23:15;;;;;;;14.70;8.65;;;4.20;52.70;;;;;;5052245;28;20038;-75
2021/03/21 04:25:52;;;;;;;15.13;7.90;;;4.10;52.60;;;;;;5051937;28;20029;-74
2021/03/21 04:28:26;;;;;;;12.48;7.88;;;4.10;52.50;;;;;;5052371;28;20021;-75
2021/03/21 04:31:02;;;;;;;12.73;7.22;;;4.20;52.50;;;;;;5052022;28;20024;-73
2021/03/21 04:33:33;;;;;;;13.15;7.40;;;4.20;52.40;;;;;;5063122;28;20509;-77
2021/03/21 04:36:26;;;;;;;18.88;8.40;;;4.20;52.30;;;;;;5057258;28;20024;-72
2021/03/21 04:38:56;;;;;;;15.38;7.30;;;4.20;52.20;;;;;;5051114;28;20390;-75
2021/03/21 04:41:30;;;;;;;11.35;6.95;;;4.20;52.10;;;;;;5051947;28;20025;-74
2021/03/21 04:44:06;;;;;;;10.75;6.60;;;4.20;52.00;;;;;;5052597;28;20371;-73
2021/03/21 04:46:45;;;;;;;11.77;7.10;;;4.20;51.90;;;;;;5052773;28;20486;-72
2021/03/21 04:49:11;;;;;;;11.23;6.90;;;4.20;51.90;;;;;;5052616;28;20025;-73
2021/03/21 04:51:42;;;;;;;10.75;6.82;;;4.20;51.90;;;;;;5052912;28;20543;-72
2021/03/21 04:54:14;;;;;;;16.02;7.43;;;4.20;51.90;;;;;;5059188;28;20017;-73
2021/03/21 04:57:14;;;;;;;12.70;6.35;;;4.20;51.70;;;;;;5069438;28;20032;-74
2021/03/21 04:59:40;;;;;;;10.38;6.25;;;4.20;51.60;;;;;;5071568;28;20425;-75
2021/03/21 05:02:32;;;;;;;10.20;6.70;;;4.20;51.50;;;;;;5053990;28;20517;-73
2021/03/21 05:05:13;;;;;;;14.25;6.50;;;4.20;51.70;;;;;;5048683;28;20037;-74
2021/03/21 05:07:48;;;;;;;8.77;5.63;;;4.20;51.80;;;;;;5052617;28;20091;-74
2021/03/21 05:10:14;;;;;;;11.90;7.03;;;4.20;51.70;;;;;;5052670;28;20031;-73
2021/03/21 05:13:04;;;;;;;9.35;6.30;;;4.20;51.60;;;;;;5052692;28;20092;-72
2021/03/21 05:15:40;;;;;;;9.88;6.25;;;4.20;51.60;;;;;;5053182;28;20029;-72
2021/03/21 05:18:25;;;;;;;9.77;6.05;;;4.20;51.60;;;;;;5071503;28;20035;-72
2021/03/21 05:21:04;;;;;;;9.65;6.25;;;4.20;51.60;;;;;;5054189;28;20030;-73
2021/03/21 05:23:47;;;;;;;12.32;6.22;;;4.30;51.70;;;;;;5052772;28;20060;-74
2021/03/21 05:26:19;;;;;;;17.55;7.05;;;4.30;51.70;;;;;;5052267;28;20171;-72
2021/03/21 05:29:07;;;;;;;8.43;5.60;;;4.30;51.70;;;;;;5052563;28;20021;-73
2021/03/21 05:31:33;;;;;;;10.73;5.93;;;4.30;51.70;;;;;;5055118;28;20557;-72
2021/03/21 05:34:01;;;;;;;10.02;6.47;;;4.30;51.70;;;;;;5072488;28;20021;-73
2021/03/21 05:36:41;;;;;;;10.13;6.30;;;4.30;51.80;;;;;;5055506;28;20475;-72
2021/03/21 05:39:33;;;;;;;9.88;6.13;;;4.30;51.90;;;;;;5051891;28;20498;-72
2021/03/21 05:42:23;;;;;;;9.95;6.35;;;4.30;52.00;;;;;;5054286;28;20037;-74
2021/03/21 05:45:09;;;;;;;8.13;5.40;;;4.40;52.00;;;;;;5052385;28;20021;-74
2021/03/21 05:47:51;;;;;;;12.50;7.47;;;4.50;52.10;;;;;;5076762;28;20037;-72
2021/03/21 05:50:49;;;;;;;12.95;7.10;;;4.50;52.20;;;;;;5052010;28;20083;-75
2021/03/21 05:53:46;;;;;;;11.40;6.35;;;4.50;52.00;;;;;;5055832;28;20446;-73
2021/03/21 05:56:44;;;;;;;10.43;6.80;;;4.60;52.00;;;;;;5055870;28;20107;-74
2021/03/21 05:59:47;;;;;;;9.35;6.47;;;4.60;51.90;;;;;;5055712;28;20382;-72
2021/03/21 06:02:50;;;;;;;9.35;5.85;;;4.70;52.00;;;;;;5055715;28;20021;-73
2021/03/21 06:05:27;;;;;;;9.25;6.57;;;4.70;51.90;;;;;;5055754;28;20029;-72
2021/03/21 06:08:34;;;;;;;12.13;6.78;;;4.80;51.90;;;;;;5055655;28;20472;-73
2021/03/21 06:11:03;;;;;;;14.00;7.22;;;4.80;51.80;;;;;;5080810;28;20131;-74
2021/03/21 06:13:59;;;;;;;14.10;7.82;;;4.90;51.80;;;;;;5075193;28;20381;-74
2021/03/21 06:16:31;;;;;;;11.10;6.85;;;4.90;51.60;;;;;;5066177;28;20036;-73
2021/03/21 06:19:29;;;;;;;13.10;6.82;;;5.00;51.50;;;;;;5070034;28;20036;-72
2021/03/21 06:21:57;;;;;;;10.93;7.22;;;5.00;51.50;;;;;;5055419;28;20025;-75
2021/03/21 06:24:38;;;;;;;12.90;7.80;;;5.10;51.40;;;;;;5064015;28;20052;-72
2021/03/21 06:27:25;;;;;;;10.65;7.10;;;5.10;51.40;;;;;;5074517;28;20054;-74
2021/03/21 06:30:26;;;;;;;12.15;7.57;;;5.00;51.40;;;;;;5054015;28;20498;-75
2021/03/21 06:33:32;;;;;;;10.80;7.43;;;5.10;51.50;;;;;;5055205;28;20032;-74
2021/03/21 06:36:13;;;;;;;19.35;8.10;;;5.10;51.70;;;;;;5036280;28;20025;-74
2021/03/21 06:38:47;;;;;;;14.38;7.65;;;5.20;51.60;;;;;;5053026;28;20059;-74
2021/03/21 06:41:37;;;;;;;11.18;7.10;;;5.20;51.60;;;;;;5053057;28;20124;-73
2021/03/21 06:44:26;;;;;;;12.18;7.32;;;5.20;51.50;;;;;;5053250;28;20549;-74
2021/03/21 06:47:23;;;;;;;8.73;6.90;;;5.20;51.50;;;;;;5064524;28;20590;-73
2021/03/21 06:49:58;;;;;;;15.93;8.65;;;5.30;51.60;;;;;;5068182;28;20041;-73
2021/03/21 06:53:06;;;;;;;14.00;7.15;;;5.30;51.40;;;;;;5054744;28;20490;-72
2021/03/21 06:55:37;;;;;;;12.48;7.88;;;5.30;51.60;;;;;;5039440;28;20410;-74
2021/03/21 06:58:47;;;;;;;10.85;7.57;;;5.40;51.90;;;;;;5036716;28;20068;-73
2021/03/21 07:01:28;;;;;;;11.50;6.60;;;5.40;51.80;;;;;;5012691;28;20387;-74
2021/03/21 07:04:12;;;;;;;11.25;6.75;;;5.40;51.50;;;;;;5011088;28;20038;-75
2021/03/21 07:07:01;;;;;;;12.27;7.50;;;5.40;51.60;;;;;;5006281;28;20043;-74
2021/03/21 07:09:39;;;;;;;12.10;7.82;;;5.50;51.40;;;;;;4993111;28;20149;-73
2021/03/21 07:12:25;;;;;;;11.43;7.60;;;5.60;51.40;;;;;;4981714;28;20038;-74
2021/03/21 07:15:24;;;;;;;11.35;7.47;;;5.60;51.30;;;;;;5011698;28;20053;-72
2021/03/21 07:18:11;;;;;;;15.63;8.15;;;5.60;51.10;;;;;;4992838;28;20026;-74
2021/03/21 07:20:59;;;;;;;15.13;8.10;;;5.70;50.80;;;;;;4992893;28;20042;-73
2021/03/21 07:23:49;;;;;;;12.80;7.40;;;5.70;50.80;;;;;;4992878;28;20117;-75
2021/03/21 07:26:36;;;;;;;9.40;6.85;;;5.80;50.90;;;;;;4996922;28;20084;-72
2021/03/21 07:29:20;;;;;;;12.98;7.30;;;5.80;51.10;;;;;;5012396;28;20368;-73
2021/03/21 07:32:03;;;;;;;10.65;6.57;;;5.90;51.30;;;;;;5036393;28;20044;-75
2021/03/21 07:34:38;;;;;;;12.55;6.95;;;5.90;51.30;;;;;;5072345;28;20028;-72
2021/03/21 07:37:30;;;;;;;11.00;6.10;;;6.00;51.30;;;;;;5073988;28;20020;-73
2021/03/21 07:40:11;;;;;;;10.27;6.78;;;6.00;51.20;;;;;;5073836;28;20016;-74
2021/03/21 07:43:09;;;;;;;8.55;5.60;;;6.10;51.20;;;;;;5073902;28;20024;-73
2021/03/21 07:46:00;;;;;;;9.82;6.20;;;6.10;51.20;;;;;;5066987;28;20077;-73
2021/03/21 07:48:43;;;;;;;12.32;6.57;;;6.20;51.20;;;;;;5067334;28;20024;-73
2021/03/21 07:51:16;;;;;;;9.70;5.70;;;6.30;50.80;;;;;;5053533;28;20045;-74
2021/03/21 07:54:19;;;;;;;10.52;6.18;;;6.30;50.70;;;;;;5063746;28;20028;-73
2021/03/21 07:56:50;;;;;;;8.02;5.47;;;6.40;50.40;;;;;;5051741;28;20367;-74
2021/03/21 07:59:30;;;;;;;7.68;5.90;;;6.50;50.40;;;;;;5053594;28;20074;-74
2021/03/21 08:01:56;;;;;;;8.00;5.32;;;6.50;50.20;;;;;;5053535;28;20044;-74
2021/03/21 08:04:24;;;;;;;6.30;4.75;;;6.50;50.40;;;;;;5054444;28;20068;-75
2021/03/21 08:07:03;;;;;;;9.73;5.28;;;6.70;51.10;;;;;;5061643;28;20033;-75
2021/03/21 08:09:38;;;;;;;7.93;6.00;;;6.80;50.80;;;;;;5062032;28;20068;-75
2021/03/21 08:12:17;;;;;;;7.57;5.07;;;6.80;50.40;;;;;;5053390;28;20421;-74
2021/03/21 08:14:47;;;;;;;7.18;4.90;;;7.00;49.90;;;;;;5063469;28;20036;-72
2021/03/21 08:17:41;;;;;;;8.02;5.75;;;7.00;49.70;;;;;;5059568;28;20031;-75
2021/03/21 08:20:17;;;;;;;7.03;4.78;;;7.20;49.60;;;;;;5050291;28;20021;-73
2021/03/21 08:22:43;;;;;;;8.32;5.18;;;7.30;49.30;;;;;;5053500;28;20100;-76
2021/03/21 08:25:30;;;;;;;7.75;4.90;;;7.40;48.60;;;;;;5053636;28;20013;-75
2021/03/21 08:27:57;;;;;;;6.97;4.85;;;7.50;48.40;;;;;;5053647;28;20021;-73
2021/03/21 08:30:27;;;;;;;7.03;4.57;;;7.70;48.50;;;;;;5062006;28;20035;-75
2021/03/21 08:33:04;;;;;;;12.38;5.20;;;7.80;48.00;;;;;;5073028;28;20025;-74
2021/03/21 08:35:34;;;;;;;6.75;4.40;;;8.00;47.70;;;;;;5071058;28;20535;-75
2021/03/21 08:38:18;;;;;;;8.32;4.88;;;8.10;47.40;;;;;;5071627;28;20452;-74
2021/03/21 08:40:45;;;;;;;12.88;5.72;;;8.20;46.70;;;;;;5070323;28;20058;-74
2021/03/21 08:43:13;;;;;;;7.18;4.90;;;8.30;45.50;;;;;;5051489;28;20048;-75
2021/03/21 08:45:43;;;;;;;9.18;4.75;;;8.30;45.00;;;;;;5055390;28;20374;-74
2021/03/21 08:48:16;;;;;;;10.10;4.93;;;8.30;45.40;;;;;;5072596;28;20055;-75
2021/03/21 08:50:48;;;;;;;11.80;5.20;;;8.20;44.70;;;;;;5072500;28;20382;-75
2021/03/21 08:53:26;;;;;;;7.47;5.00;;;8.30;45.40;;;;;;5072861;28;20491;-73
2021/03/21 08:56:11;;;;;;;8.35;4.85;;;8.30;45.10;;;;;;5066357;28;20049;-74
2021/03/21 08:58:37;;;;;;;6.53;4.63;;;8.40;45.00;;;;;;5069263;28;20040;-74
2021/03/21 09:01:19;;;;;;;9.35;5.35;;;8.40;44.30;;;;;;5070991;28;20035;-75
2021/03/21 09:03:46;;;;;;;11.75;4.63;;;8.40;44.00;;;;;;5069786;28;20041;-74
2021/03/21 09:06:33;;;;;;;9.88;5.22;;;8.40;44.00;;;;;;5072768;28;20128;-74
2021/03/21 09:09:19;;;;;;;7.95;4.55;;;8.40;43.80;;;;;;5071139;28;20028;-74
2021/03/21 09:11:47;;;;;;;6.40;4.57;;;8.40;44.20;;;;;;5063991;28;20029;-73
2021/03/21 09:14:20;;;;;;;8.98;4.53;;;8.50;43.80;;;;;;5051359;28;20024;-74
2021/03/21 09:16:57;;;;;;;6.72;4.80;;;8.50;43.90;;;;;;5053660;28;20109;-72
2021/03/21 09:19:31;;;;;;;6.38;4.25;;;8.40;43.30;;;;;;5051266;28;20159;-72
2021/03/21 09:21:58;;;;;;;11.48;5.05;;;8.40;43.50;;;;;;5052570;28;20100;-74
2021/03/21 09:24:27;;;;;;;8.27;4.47;;;8.40;43.60;;;;;;5051126;28;20083;-74
2021/03/21 09:27:12;;;;;;;6.25;4.28;;;8.40;43.60;;;;;;5053152;28;20036;-75
2021/03/21 09:29:39;;;;;;;11.18;4.90;;;8.40;43.60;;;;;;5056382;28;20020;-74
2021/03/21 09:32:36;;;;;;;7.20;4.50;;;8.40;43.90;;;;;;5070810;28;20024;-74
2021/03/21 09:35:36;;;;;;;5.80;4.00;;;8.40;43.70;;;;;;5076226;28;20527;-73
2021/03/21 09:38:25;;;;;;;9.63;5.50;;;8.40;44.10;;;;;;5069325;28;20123;-74
2021/03/21 09:40:55;;;;;;;6.80;4.30;;;8.40;43.90;;;;;;5074060;28;20033;-75
2021/03/21 09:43:26;;;;;;;6.97;3.70;;;8.40;43.50;;;;;;5056135;28;20418;-74
2021/03/21 09:46:05;;;;;;;7.10;4.45;;;8.40;43.50;;;;;;5055940;28;20466;-73
2021/03/21 09:48:36;;;;;;;9.27;4.45;;;8.50;43.40;;;;;;5054785;28;20036;-75
2021/03/21 09:51:10;;;;;;;6.38;3.90;;;8.40;43.30;;;;;;5055717;28;20045;-75
2021/03/21 09:54:02;;;;;;;5.45;3.90;;;8.40;43.00;;;;;;5069376;28;20025;-74
2021/03/21 09:56:28;;;;;;;6.68;3.85;;;8.40;43.30;;;;;;5074674;28;20470;-74
2021/03/21 09:59:29;;;;;;;7.40;4.30;;;8.40;43.30;;;;;;5075188;28;20042;-73
2021/03/21 10:02:04;;;;;;;7.40;4.03;;;8.40;43.30;;;;;;5075391;28;20059;-74
2021/03/21 10:04:34;;;;;;;6.80;4.25;;;8.40;43.30;;;;;;5075792;28;20032;-73
2021/03/21 10:07:07;;;;;;;6.47;4.45;;;8.40;43.40;;;;;;5073942;28;20022;-73
2021/03/21 10:09:34;;;;;;;9.32;4.45;;;8.40;43.30;;;;;;5075728;28;20036;-73
2021/03/21 10:12:06;;;;;;;5.72;4.07;;;8.30;43.50;;;;;;5066213;28;20033;-74
2021/03/21 10:14:31;;;;;;;6.78;4.28;;;8.30;43.60;;;;;;5055535;28;20033;-73
2021/03/21 10:17:20;;;;;;;10.98;4.78;;;8.30;43.60;;;;;;5055223;28;20405;-73
2021/03/21 10:19:54;;;;;;;8.35;4.93;;;8.30;43.60;;;;;;5055374;28;20067;-73
2021/03/21 10:22:46;;;;;;;6.25;3.70;;;8.20;43.70;;;;;;5057580;28;20474;-72
2021/03/21 10:25:13;;;;;;;6.95;4.15;;;8.20;43.90;;;;;;5055171;28;20036;-74
2021/03/21 10:27:44;;;;;;;6.95;4.35;;;8.30;44.20;;;;;;5054023;28;20079;-75
2021/03/21 10:30:28;;;;;;;11.43;4.90;;;8.30;44.10;;;;;;5055177;28;20040;-74
2021/03/21 10:33:00;;;;;;;6.93;4.18;;;8.30;43.90;;;;;;5068401;28;20043;-74
2021/03/21 10:35:29;;;;;;;12.35;4.40;;;8.30;44.00;;;;;;5073517;28;20094;-74
2021/03/21 10:38:33;;;;;;;5.93;3.90;;;8.30;43.90;;;;;;5057897;28;20017;-73
2021/03/21 10:40:59;;;;;;;7.30;4.32;;;8.30;44.20;;;;;;5072380;28;20032;-74
2021/03/21 10:43:28;;;;;;;9.07;4.50;;;8.30;44.00;;;;;;5069697;28;20363;-74
2021/03/21 10:45:55;;;;;;;5.35;3.80;;;8.30;43.90;;;;;;5054710;28;20485;-73
2021/03/21 10:48:27;;;;;;;6.72;4.00;;;8.30;44.00;;;;;;5054738;28;20025;-73
2021/03/21 10:50:55;;;;;;;8.18;4.40;;;8.20;43.50;;;;;;5053141;28;20119;-75
2021/03/21 10:53:36;;;;;;;7.60;4.20;;;8.20;43.50;;;;;;5054373;28;20032;-74
2021/03/21 10:56:20;;;;;;;6.50;4.03;;;8.20;43.70;;;;;;5063160;28;20028;-75
2021/03/21 10:58:45;;;;;;;7.63;3.97;;;8.20;44.00;;;;;;5070184;28;20470;-74
2021/03/21 11:01:20;;;;;;;7.05;3.60;;;8.20;44.00;;;;;;5060276;28;20034;-74
2021/03/21 11:04:00;;;;;;;6.40;3.95;;;8.20;43.90;;;;;;5074620;28;20157;-75
2021/03/21 11:06:32;;;;;;;7.70;3.97;;;8.20;44.00;;;;;;5060521;28;20379;-74
2021/03/21 11:09:13;;;;;;;10.80;4.68;;;8.20;44.00;;;;;;5070030;28;20409;-74
2021/03/21 11:11:45;;;;;;;6.53;3.85;;;8.20;44.90;;;;;;5053115;28;20478;-74
2021/03/21 11:14:26;;;;;;;5.85;3.90;;;8.20;44.70;;;;;;5061562;28;20503;-74
2021/03/21 11:17:25;;;;;;;6.72;3.90;;;8.30;44.60;;;;;;5074370;28;20105;-75
2021/03/21 11:19:56;;;;;;;8.65;4.03;;;8.30;44.50;;;;;;5056425;28;20057;-73
2021/03/21 11:22:35;;;;;;;5.30;3.63;;;8.30;45.10;;;;;;5053037;28;20415;-73
2021/03/21 11:25:03;;;;;;;8.13;4.20;;;8.30;44.90;;;;;;5054870;28;20021;-74
2021/03/21 11:27:34;;;;;;;6.95;4.13;;;8.30;45.30;;;;;;5071843;28;20028;-73
2021/03/21 11:30:26;;;;;;;6.07;3.90;;;8.20;45.30;;;;;;5074091;28;20035;-75
2021/03/21 11:32:53;;;;;;;6.55;4.43;;;8.20;45.50;;;;;;5073810;28;20028;-75
2021/03/21 11:35:29;;;;;;;7.93;4.22;;;8.20;47.20;;;;;;5068272;28;20116;-73
2021/03/21 11:37:57;;;;;;;12.32;4.47;;;8.10;48.90;;;;;;5067880;28;20028;-74
2021/03/21 11:40:29;;;;;;;6.43;4.05;;;8.10;48.50;;;;;;5053337;28;20021;-75
2021/03/21 11:43:27;;;;;;;9.50;4.45;;;8.00;48.30;;;;;;5053133;28;20021;-75
2021/03/21 11:45:54;;;;;;;8.15;3.83;;;8.00;48.20;;;;;;5062452;28;20039;-77
2021/03/21 11:48:33;;;;;;;5.10;3.42;;;8.00;49.10;;;;;;5068609;28;20500;-73
2021/03/21 11:51:01;;;;;;;6.93;4.25;;;8.00;49.20;;;;;;5066990;28;20056;-74
2021/03/21 11:53:32;;;;;;;6.78;4.03;;;8.10;49.70;;;;;;5053822;28;20391;-74
2021/03/21 11:56:31;;;;;;;6.00;3.65;;;8.10;49.60;;;;;;5052705;28;20027;-74
2021/03/21 11:59:02;;;;;;;9.27;4.05;;;8.20;49.80;;;;;;5043489;28;20548;-74
2021/03/21 12:01:43;;;;;;;8.95;4.18;;;8.30;48.80;;;;;;5051889;28;20037;-73
2021/03/21 12:04:18;;;;;;;6.60;4.15;;;8.30;48.70;;;;;;5062440;28;20024;-74
2021/03/21 12:06:48;;;;;;;7.35;4.30;;;8.40;49.00;;;;;;5083843;28;20103;-72
2021/03/21 12:09:27;;;;;;;9.57;4.32;;;8.40;48.10;;;;;;5092755;28;20028;-73
2021/03/21 12:11:54;;;;;;;11.63;4.43;;;8.40;48.00;;;;;;5089956;28;20381;-72
2021/03/21 12:14:24;;;;;;;8.82;3.97;;;8.40;48.20;;;;;;5052214;28;20036;-74
2021/03/21 12:16:50;;;;;;;5.97;3.83;;;8.50;48.60;;;;;;5051123;28;20025;-74
2021/03/21 12:19:37;;;;;;;10.35;4.05;;;8.50;48.60;;;;;;5052158;28;20027;-73
2021/03/21 12:22:24;;;;;;;9.13;3.70;;;8.60;49.10;;;;;;5052390;28;20017;-73
2021/03/21 12:24:59;;;;;;;8.98;4.60;;;8.70;49.20;;;;;;5052220;28;20443;-73
2021/03/21 12:27:27;;;;;;;6.85;3.70;;;8.70;48.30;;;;;;5050925;28;20021;-72
2021/03/21 12:30:13;;;;;;;8.32;4.05;;;8.80;48.80;;;;;;5052302;28;20029;-74
2021/03/21 12:32:41;;;;;;;7.20;3.50;;;8.80;48.00;;;;;;5051993;28;20500;-73
2021/03/21 12:35:30;;;;;;;6.05;4.10;;;8.80;47.90;;;;;;5052155;28;20025;-74
2021/03/21 12:38:00;;;;;;;8.98;4.30;;;8.90;47.90;;;;;;5051342;28;20116;-75
2021/03/21 12:40:44;;;;;;;6.20;4.25;;;9.00;48.00;;;;;;5060559;28;20432;-75
2021/03/21 12:43:32;;;;;;;7.88;4.65;;;9.10;46.90;;;;;;5070812;28;20020;-74
2021/03/21 12:46:13;;;;;;;9.48;4.30;;;9.20;46.60;;;;;;5064282;28;20087;-73
2021/03/21 12:48:51;;;;;;;7.25;3.90;;;9.30;45.90;;;;;;5050956;28;20505;-74
2021/03/21 12:51:32;;;;;;;5.72;3.35;;;9.30;45.50;;;;;;5052010;28;20045;-74
2021/03/21 12:54:00;;;;;;;8.50;4.43;;;9.40;45.50;;;;;;5058290;28;20481;-75
2021/03/21 12:56:26;;;;;;;11.63;4.05;;;9.40;45.20;;;;;;5071440;28;20028;-74
2021/03/21 12:58:52;;;;;;;5.78;3.58;;;9.40;45.00;;;;;;5070348;28;20074;-76
2021/03/21 13:01:20;;;;;;;6.20;3.63;;;9.40;45.00;;;;;;5072701;28;20084;-73
2021/03/21 13:03:46;;;;;;;6.55;4.30;;;9.30;45.30;;;;;;5070462;28;20486;-74
2021/03/21 13:06:12;;;;;;;12.80;4.90;;;9.30;45.10;;;;;;5074846;28;20420;-74
2021/03/21 13:08:37;;;;;;;9.80;3.92;;;9.20;44.90;;;;;;5064536;28;20044;-74
2021/03/21 13:11:06;;;;;;;8.07;4.10;;;9.10;45.20;;;;;;5055846;28;20044;-73
2021/03/21 13:13:34;;;;;;;12.73;4.82;;;9.10;45.40;;;;;;5058117;28;20037;-74
2021/03/21 13:16:00;;;;;;;6.68;3.80;;;9.00;46.30;;;;;;5054393;28;20075;-74
2021/03/21 13:18:27;;;;;;;7.50;3.75;;;8.90;46.40;;;;;;5055642;28;20021;-73
2021/03/21 13:20:56;;;;;;;6.72;4.05;;;8.90;45.90;;;;;;5055727;28;20027;-73
2021/03/21 13:23:23;;;;;;;7.15;4.18;;;8.80;47.20;;;;;;5056013;28;20025;-73
2021/03/21 13:25:49;;;;;;;8.38;4.47;;;8.70;46.90;;;;;;5055752;28;20070;-74
2021/03/21 13:28:16;;;;;;;7.38;4.28;;;8.60;46.70;;;;;;5055649;28;20027;-74
2021/03/21 13:30:45;;;;;;;7.15;4.28;;;8.40;47.30;;;;;;5055669;28;20390;-75
2021/03/21 13:33:15;;;;;;;7.28;4.60;;;8.30;47.50;;;;;;5055576;28;20041;-75
2021/03/21 13:35:42;;;;;;;10.57;5.30;;;8.20;47.80;;;;;;5055681;28;20061;-74
2021/03/21 13:38:08;;;;;;;6.75;4.63;;;8.20;48.00;;;;;;5055586;28;20025;-73
2021/03/21 13:40:40;;;;;;;10.55;4.43;;;8.20;48.80;;;;;;5069176;28;20035;-73
2021/03/21 13:43:08;;;;;;;8.75;4.85;;;8.10;48.30;;;;;;5055311;28;20112;-74